Time;durP1;ratioP1;P1;durP2;ratioP2;P2;SDS_P1;SDS_P2;PMS_P1;PMS_P2;Temp;Humidity;BMP_temperature;BMP_pressure;BME280_temperature;BME280_humidity;BME280_pressure;Samples;Min_cycle;Max_cycle;Signal;HPM_P1;HPM_P2
2022/11/12 00:01:10;;;;;;;1.83;1.02;;;;;;;19.06;47.27;103033.13;16123698;19;129645;-42
2022/11/12 00:06:32;;;;;;;3.40;1.10;;;;;;;19.04;47.56;103034.38;16120263;19;130832;-42
2022/11/12 00:11:54;;;;;;;1.75;1.00;;;;;;;19.02;47.41;103042.91;16124046;19;130707;-42
2022/11/12 00:17:15;;;;;;;1.98;0.95;;;;;;;18.99;47.36;103043.28;16122044;19;129326;-43
2022/11/12 00:22:37;;;;;;;1.20;0.90;;;;;;;18.96;47.62;103040.06;16119383;19;129849;-42
2022/11/12 00:28:04;;;;;;;1.15;0.80;;;;;;;18.93;47.43;103038.53;16122133;19;134950;-42
2022/11/12 00:33:25;;;;;;;4.90;0.93;;;;;;;18.90;47.62;103044.47;16119425;19;129602;-43
2022/11/12 00:38:47;;;;;;;1.92;0.80;;;;;;;18.87;47.38;103044.84;16120715;19;129849;-42
2022/11/12 00:44:09;;;;;;;2.45;0.90;;;;;;;18.84;47.59;103046.13;16118756;19;129864;-42
2022/11/12 00:49:31;;;;;;;2.80;0.98;;;;;;;18.83;47.70;103038.00;16121489;19;129629;-42
2022/11/12 00:54:52;;;;;;;1.98;1.15;;;;;;;18.81;47.64;103031.78;16118158;19;130107;-42
2022/11/12 01:00:17;;;;;;;1.88;1.08;;;;;;;18.79;47.67;103025.56;16119309;19;131397;-42
2022/11/12 01:05:38;;;;;;;1.25;0.80;;;;;;;18.76;47.23;103033.22;16117683;19;129580;-43
2022/11/12 01:11:10;;;;;;;1.92;1.00;;;;;;;18.76;47.52;103012.97;16119179;19;129821;-43
2022/11/12 01:16:37;;;;;;;0.90;0.65;;;;;;;18.73;47.47;103019.75;16121610;19;129820;-42
2022/11/12 01:21:59;;;;;;;1.17;0.82;;;;;;;18.71;47.48;103013.53;16134058;19;129418;-43
2022/11/12 01:27:20;;;;;;;2.15;0.77;;;;;;;18.69;47.64;103014.78;16133270;19;129153;-43
2022/11/12 01:32:42;;;;;;;1.33;0.80;;;;;;;18.67;47.50;103019.66;16131247;19;129256;-43
2022/11/12 01:38:04;;;;;;;1.80;0.85;;;;;;;18.65;47.45;103008.78;16130152;19;130420;-42
2022/11/12 01:43:25;;;;;;;2.35;0.80;;;;;;;18.64;47.51;103012.63;16130941;19;130056;-43
2022/11/12 01:48:52;;;;;;;2.85;1.00;;;;;;;18.62;47.46;103009.16;16127826;19;129611;-43
2022/11/12 01:54:17;;;;;;;1.15;0.90;;;;;;;18.60;47.46;103011.28;16129386;19;129476;-42
2022/11/12 01:59:42;;;;;;;0.88;0.73;;;;;;;18.58;47.22;103008.72;16127741;19;129515;-42
2022/11/12 02:05:07;;;;;;;0.95;0.70;;;;;;;18.58;47.08;103007.88;16130126;19;129481;-43
2022/11/12 02:10:29;;;;;;;0.75;0.73;;;;;;;18.55;47.54;103003.53;16130471;19;130462;-42
2022/11/12 02:15:54;;;;;;;0.93;0.70;;;;;;;18.55;47.32;103005.47;16127747;19;129399;-42
2022/11/12 02:21:21;;;;;;;1.50;0.80;;;;;;;18.54;47.32;103000.97;16127440;19;129444;-42
2022/11/12 02:26:47;;;;;;;0.88;0.70;;;;;;;18.52;47.00;102998.41;16127947;19;130000;-42
2022/11/12 02:32:08;;;;;;;;;;;;;;;18.48;46.91;102997.09;16127838;19;130117;-43
2022/11/12 02:37:30;;;;;;;0.90;0.80;;;;;;;18.50;47.33;102999.66;16124752;19;129542;-42
2022/11/12 02:42:52;;;;;;;1.20;0.80;;;;;;;18.48;47.19;103002.63;16125549;19;130570;-43
2022/11/12 02:48:13;;;;;;;1.27;0.80;;;;;;;18.46;46.98;102997.25;16127308;19;129402;-43
2022/11/12 02:53:39;;;;;;;1.38;0.90;;;;;;;18.45;46.94;102995.56;16125094;19;131112;-43
2022/11/12 02:59:01;;;;;;;1.00;0.70;;;;;;;18.44;47.14;102998.50;16125484;19;129600;-42
2022/11/12 03:04:23;;;;;;;0.70;0.60;;;;;;;18.43;46.84;102999.56;16125964;19;130566;-42
2022/11/12 03:09:44;;;;;;;0.77;0.73;;;;;;;18.42;47.23;102997.84;16125124;19;130638;-42
2022/11/12 03:15:06;;;;;;;1.02;0.73;;;;;;;18.40;46.83;103008.28;16126088;19;129082;-42
2022/11/12 03:20:29;;;;;;;2.70;0.70;;;;;;;18.39;46.89;103012.97;16126759;19;129480;-42
2022/11/12 03:25:50;;;;;;;1.00;0.50;;;;;;;18.37;46.95;103009.47;16124243;19;128856;-43
2022/11/12 03:31:12;;;;;;;1.35;0.75;;;;;;;18.36;46.82;102999.44;16124351;19;129428;-43
2022/11/12 03:36:34;;;;;;;2.47;0.68;;;;;;;18.35;46.89;102997.72;16124087;19;129269;-42
2022/11/12 03:41:56;;;;;;;0.70;0.60;;;;;;;18.34;47.22;103006.25;16119719;19;129558;-43
2022/11/12 03:47:17;;;;;;;0.85;0.70;;;;;;;18.33;46.75;102998.97;16120942;19;129366;-42
2022/11/12 03:52:50;;;;;;;0.90;0.70;;;;;;;18.34;46.92;102993.22;16125318;19;130777;-42
2022/11/12 03:58:12;;;;;;;0.63;0.60;;;;;;;18.31;47.21;102985.34;16122751;19;129011;-42
2022/11/12 04:03:34;;;;;;;1.25;0.70;;;;;;;18.30;46.76;102989.16;16123363;19;130054;-42
2022/11/12 04:08:55;;;;;;;0.50;0.50;;;;;;;18.31;46.64;102988.09;16122157;19;129824;-43
2022/11/12 04:14:17;;;;;;;0.50;0.50;;;;;;;18.29;46.74;102981.88;16117961;19;129550;-42
2022/11/12 04:30:59;;;;;;;0.68;0.57;;;;;;;18.24;46.80;102953.91;16121037;19;129653;-43
2022/11/12 04:36:20;;;;;;;0.82;0.65;;;;;;;18.24;47.01;102951.13;16118986;19;130335;-42
2022/11/12 04:47:22;;;;;;;0.73;0.50;;;;;;;18.21;46.66;102957.06;16120301;19;129748;-42
2022/11/12 04:52:44;;;;;;;1.13;0.52;;;;;;;18.21;46.64;102955.16;16130001;19;129660;-42
2022/11/12 04:58:05;;;;;;;1.25;0.73;;;;;;;18.19;47.02;102953.63;16135323;19;129854;-43
2022/11/12 05:03:27;;;;;;;1.23;0.52;;;;;;;18.20;46.74;102949.81;16135201;19;129831;-43
2022/11/12 05:08:49;;;;;;;0.73;0.70;;;;;;;18.18;46.68;102954.69;16135972;19;129685;-42
2022/11/12 05:14:11;;;;;;;0.52;0.40;;;;;;;18.17;46.73;102966.81;16137326;19;129989;-43
2022/11/12 05:19:33;;;;;;;0.65;0.50;;;;;;;18.15;46.52;102965.09;16133332;19;129467;-42
2022/11/12 05:24:55;;;;;;;0.50;0.50;;;;;;;18.15;46.73;102962.31;16133784;19;129312;-42
2022/11/12 05:30:17;;;;;;;1.40;0.55;;;;;;;18.14;46.91;102960.59;16131763;19;130223;-42
2022/11/12 05:35:38;;;;;;;0.70;0.45;;;;;;;18.13;46.60;102950.56;16131808;19;129629;-42
2022/11/12 05:41:00;;;;;;;0.93;0.50;;;;;;;18.12;46.47;102948.84;16134240;19;130839;-42
2022/11/12 05:46:22;;;;;;;0.77;0.52;;;;;;;18.12;46.81;102942.47;16132221;19;129271;-43
2022/11/12 05:51:44;;;;;;;0.40;0.40;;;;;;;18.11;46.38;102949.91;16131916;19;129925;-42
2022/11/12 05:57:05;;;;;;;0.68;0.60;;;;;;;18.10;46.51;102947.34;16130593;19;131060;-43
2022/11/12 06:02:27;;;;;;;2.70;0.60;;;;;;;18.09;46.78;102953.94;16131147;19;129368;-43
2022/11/12 06:07:49;;;;;;;0.52;0.50;;;;;;;18.07;46.73;102951.38;16130000;19;130287;-43
2022/11/12 06:13:10;;;;;;;0.60;0.60;;;;;;;18.07;46.30;102954.13;16130040;19;130247;-42
2022/11/12 06:18:32;;;;;;;0.80;0.60;;;;;;;18.05;46.40;102941.50;16126762;19;129557;-43
2022/11/12 06:23:57;;;;;;;0.50;0.50;;;;;;;18.05;46.67;102941.50;16128808;19;130692;-43
2022/11/12 06:29:18;;;;;;;0.63;0.50;;;;;;;18.04;46.37;102951.75;16129050;19;129734;-42
2022/11/12 06:34:40;;;;;;;0.55;0.47;;;;;;;18.03;46.54;102944.47;16130114;19;129752;-42
2022/11/12 06:40:02;;;;;;;0.43;0.40;;;;;;;18.04;46.27;102943.44;16131965;19;130027;-43
2022/11/12 06:45:24;;;;;;;0.68;0.47;;;;;;;18.09;46.22;102937.31;16131727;19;135091;-42
2022/11/12 06:50:46;;;;;;;2.35;0.50;;;;;;;18.29;46.71;102943.94;16119247;19;129659;-40
2022/11/12 06:56:08;;;;;;;0.80;0.38;;;;;;;18.70;46.10;102942.53;16125048;19;130787;-41
2022/11/12 07:01:29;;;;;;;3.53;0.40;;;;;;;19.06;45.57;102949.03;16123093;19;129723;-42
2022/11/12 07:06:51;;;;;;;0.93;0.50;;;;;;;19.30;44.95;102952.47;16119643;19;131757;-43
2022/11/12 07:12:13;;;;;;;0.98;0.60;;;;;;;19.64;44.83;102957.19;16119757;19;129455;-42
2022/11/12 07:17:35;;;;;;;0.85;0.50;;;;;;;19.90;43.97;102963.97;16120252;19;130758;-42
2022/11/12 07:22:59;;;;;;;3.22;0.60;;;;;;;19.78;44.11;102972.00;16125198;19;129661;-43
2022/11/12 07:28:21;;;;;;;4.63;0.70;;;;;;;19.66;44.56;102974.50;16123575;19;130027;-43
2022/11/12 07:33:44;;;;;;;0.80;0.57;;;;;;;19.57;44.62;102983.19;16121716;19;129775;-41
2022/11/12 07:39:05;;;;;;;4.00;0.75;;;;;;;19.49;44.59;102984.19;16126425;19;129616;-42
2022/11/12 07:44:27;;;;;;;1.15;0.68;;;;;;;19.43;44.48;102996.13;16120931;19;129403;-42
2022/11/12 07:49:49;;;;;;;3.30;0.70;;;;;;;19.35;44.59;103000.75;16109525;19;130332;-41
2022/11/12 07:55:11;;;;;;;2.35;0.40;;;;;;;19.64;44.07;103001.63;16120298;19;130540;-42
2022/11/12 08:00:33;;;;;;;3.78;0.98;;;;;;;20.05;43.27;103004.69;16123053;19;129557;-42
2022/11/12 08:05:55;;;;;;;4.05;0.82;;;;;;;19.89;43.52;102995.59;16124121;19;129469;-43
2022/11/12 08:11:17;;;;;;;4.10;0.98;;;;;;;19.69;43.99;103003.78;16124654;19;129911;-42
2022/11/12 08:16:38;;;;;;;6.32;1.10;;;;;;;20.27;42.68;103000.72;16123298;19;129550;-43
2022/11/12 08:22:00;;;;;;;3.10;1.00;;;;;;;20.22;42.47;103014.38;16123630;19;129671;-43
2022/11/12 08:27:22;;;;;;;4.25;1.33;;;;;;;19.81;43.13;103004.09;16120477;19;129749;-42
2022/11/12 08:32:44;;;;;;;3.22;0.95;;;;;;;19.52;43.73;103014.34;16121733;19;129688;-43
2022/11/12 08:38:08;;;;;;;5.72;1.10;;;;;;;19.34;44.00;103017.63;16121297;19;129001;-42
2022/11/12 08:43:29;;;;;;;5.43;1.08;;;;;;;19.21;44.06;103013.66;16120159;19;129460;-43
2022/11/12 08:48:51;;;;;;;3.53;0.70;;;;;;;19.09;44.33;103009.69;16115348;19;131079;-42
2022/11/12 08:54:13;;;;;;;2.65;0.60;;;;;;;19.01;44.47;103007.88;16121585;19;129730;-42
2022/11/12 08:59:34;;;;;;;3.20;0.70;;;;;;;18.96;44.82;103010.38;16116096;19;129647;-42
2022/11/12 09:04:56;;;;;;;3.47;0.80;;;;;;;18.91;45.05;103007.38;16119742;19;129886;-42
2022/11/12 09:10:18;;;;;;;7.03;0.70;;;;;;;18.86;45.28;103013.50;16116017;19;129318;-42
2022/11/12 09:15:40;;;;;;;4.03;1.05;;;;;;;18.83;45.04;103018.59;16116272;19;130431;-42
2022/11/12 09:21:07;;;;;;;3.63;0.70;;;;;;;18.80;45.48;103021.75;16117812;19;129074;-42
2022/11/12 09:26:29;;;;;;;4.97;0.80;;;;;;;18.73;45.74;103011.44;16115786;19;129529;-42
2022/11/12 09:31:50;;;;;;;2.60;0.98;;;;;;;18.70;46.21;103010.97;16115112;19;129244;-42
2022/11/12 09:37:12;;;;;;;2.38;0.70;;;;;;;18.65;46.28;103005.13;16121164;19;129418;-42
2022/11/12 09:42:35;;;;;;;2.20;0.80;;;;;;;18.63;46.18;103010.06;16131833;19;130328;-42
2022/11/12 09:48:05;;;;;;;2.78;0.90;;;;;;;18.60;46.38;103016.81;16130493;19;129752;-42
2022/11/12 09:53:27;;;;;;;3.30;0.70;;;;;;;18.57;46.91;103020.00;16131531;19;129878;-42
2022/11/12 09:58:49;;;;;;;4.40;0.80;;;;;;;18.54;47.08;103020.38;16129115;19;128939;-42
2022/11/12 10:04:50;;;;;;;3.30;0.70;;;;;;;18.53;47.12;103025.06;16130462;19;130894;-42
2022/11/12 10:10:21;;;;;;;1.90;0.70;;;;;;;18.51;46.93;103027.19;16128305;19;129786;-42
2022/11/12 10:21:43;;;;;;;0.80;0.50;;;;;;;18.46;47.08;103024.97;16127574;19;129275;-34
2022/11/12 10:27:19;;;;;;;4.25;0.73;;;;;;;18.45;47.65;103014.97;16129975;19;129668;-34
2022/11/12 10:32:45;;;;;;;1.70;0.60;;;;;;;18.42;47.39;103008.94;16127372;19;129251;-34
2022/11/12 10:38:15;;;;;;;1.33;0.50;;;;;;;18.39;47.87;103010.19;16127521;19;129814;-42
2022/11/12 10:43:52;;;;;;;1.77;0.50;;;;;;;18.40;48.00;103003.59;16128819;19;129446;-42
2022/11/12 10:49:14;;;;;;;1.10;0.80;;;;;;;18.37;47.20;102989.25;16119982;19;130320;-42
2022/11/12 10:54:36;;;;;;;1.27;0.68;;;;;;;18.34;47.57;102984.91;16125427;19;130626;-42
2022/11/12 11:00:17;;;;;;;1.05;0.70;;;;;;;18.34;47.53;102979.38;16124273;19;129404;-42
2022/11/12 11:05:53;;;;;;;4.13;1.02;;;;;;;18.33;47.73;102982.34;16125469;19;133673;-42
2022/11/12 11:11:27;;;;;;;1.17;0.90;;;;;;;18.29;47.38;102977.19;16127203;19;129643;-42
2022/11/12 11:17:07;;;;;;;1.98;1.00;;;;;;;18.27;47.27;102972.91;16124617;19;130556;-42
2022/11/12 11:22:43;;;;;;;1.25;0.73;;;;;;;18.27;47.44;102970.13;16127064;19;131462;-41
2022/11/12 11:28:28;;;;;;;2.17;0.93;;;;;;;18.25;47.80;102948.19;16118672;19;130672;-42
2022/11/12 11:34:11;;;;;;;0.93;0.65;;;;;;;18.26;47.84;102946.25;16118933;19;129545;-42
2022/11/12 11:39:54;;;;;;;2.67;0.63;;;;;;;18.28;48.02;102935.84;16121294;19;130038;-42
2022/11/12 11:45:39;;;;;;;1.25;0.65;;;;;;;18.27;48.46;102934.13;16121410;19;129550;-42
2022/11/12 11:51:07;;;;;;;8.50;3.28;;;;;;;18.30;48.27;102928.19;16127899;19;130121;-42
2022/11/12 11:56:35;;;;;;;6.57;3.03;;;;;;;18.30;48.52;102930.97;16123256;19;131120;-41
2022/11/12 12:02:18;;;;;;;7.45;3.15;;;;;;;18.29;48.31;102929.25;16116872;19;130962;-42
2022/11/12 12:07:49;;;;;;;9.27;3.38;;;;;;;18.29;48.48;102932.88;16119522;19;129991;-42
2022/11/12 12:13:19;;;;;;;10.18;3.45;;;;;;;18.33;48.78;102922.28;16120280;19;129368;-43
2022/11/12 12:18:53;;;;;;;7.45;3.58;;;;;;;18.29;48.71;102909.84;16114402;19;130766;-42
2022/11/12 12:24:23;;;;;;;8.65;3.88;;;;;;;18.28;49.02;102905.34;16118704;19;129408;-43
2022/11/12 12:29:50;;;;;;;10.88;2.88;;;;;;;18.25;49.18;102894.66;16119769;19;135420;-42
2022/11/12 12:35:39;;;;;;;6.75;2.83;;;;;;;18.24;49.34;102885.50;16116513;19;129837;-42
2022/11/12 12:41:27;;;;;;;7.45;2.60;;;;;;;18.20;49.45;102884.16;16120220;19;129554;-42
2022/11/12 12:46:55;;;;;;;5.50;1.83;;;;;;;18.20;49.84;102867.56;16111593;19;131858;-43
2022/11/12 12:52:16;;;;;;;5.18;2.50;;;;;;;18.18;49.73;102864.13;16116551;19;129490;-43
2022/11/12 12:57:39;;;;;;;5.47;1.90;;;;;;;18.17;49.93;102864.31;16113854;19;130632;-42
2022/11/12 13:03:01;;;;;;;6.63;2.13;;;;;;;18.17;49.92;102856.00;16117885;19;129641;-42
2022/11/12 13:08:24;;;;;;;4.03;1.77;;;;;;;18.15;50.36;102854.28;16119100;19;130627;-42
2022/11/12 13:13:47;;;;;;;4.60;1.77;;;;;;;18.15;50.15;102859.00;16124607;19;130430;-42
2022/11/12 13:19:08;;;;;;;2.85;1.52;;;;;;;18.17;50.46;102853.25;16131126;19;130021;-42
2022/11/12 13:25:07;;;;;;;6.20;1.67;;;;;;;18.20;50.66;102852.84;16130690;19;129423;-42
2022/11/12 13:30:29;;;;;;;4.95;1.55;;;;;;;18.22;50.42;102847.94;16131572;19;129866;-42
2022/11/12 13:35:50;;;;;;;6.85;1.92;;;;;;;18.25;49.90;102836.47;16126206;19;129642;-41
2022/11/12 13:42:46;;;;;;;10.70;1.88;;;;;;;18.28;50.05;102836.94;16129888;19;129690;-43
2022/11/12 13:47:03;;;;;;;7.13;1.75;;;;;;;18.30;49.76;102834.84;16131268;19;129717;-42
2022/11/12 13:52:27;;;;;;;4.22;1.60;;;;;;;18.34;50.19;102828.91;16127217;19;129805;-42
2022/11/12 13:57:51;;;;;;;4.13;1.95;;;;;;;18.34;50.04;102818.66;16127691;19;130481;-42
2022/11/12 14:03:17;;;;;;;3.05;1.25;;;;;;;18.34;50.31;102824.19;16127454;19;129895;-42
2022/11/12 14:09:11;;;;;;;6.72;1.77;;;;;;;18.41;50.21;102813.22;16126284;19;129519;-42
2022/11/12 14:14:45;;;;;;;5.05;1.50;;;;;;;18.53;50.34;102805.25;16128865;19;130151;-41
2022/11/12 14:20:46;;;;;;;3.08;1.27;;;;;;;18.70;49.77;102809.44;16127719;19;129909;-39
2022/11/12 14:26:10;;;;;;;3.58;1.65;;;;;;;18.86;49.88;102810.19;16127031;19;132226;-42
2022/11/12 14:31:31;;;;;;;3.47;1.20;;;;;;;18.97;49.29;102801.31;16120268;19;129688;-42
2022/11/12 14:36:54;;;;;;;6.47;2.50;;;;;;;19.03;49.65;102800.50;16126080;19;129626;-42
2022/11/12 14:42:16;;;;;;;8.13;2.88;;;;;;;19.04;49.44;102801.34;16127046;19;129932;-42
2022/11/12 14:47:38;;;;;;;9.30;2.97;;;;;;;19.02;49.26;102797.91;16125585;19;129888;-42
2022/11/12 14:53:24;;;;;;;12.45;3.30;;;;;;;19.01;49.17;102797.06;16125978;19;131604;-42
2022/11/12 14:58:46;;;;;;;9.93;3.45;;;;;;;18.97;49.15;102794.91;16120957;19;129824;-43
2022/11/12 15:04:10;;;;;;;8.43;2.83;;;;;;;18.95;48.80;102808.13;16123653;19;129616;-42
2022/11/12 15:09:37;;;;;;;9.05;3.10;;;;;;;18.90;49.27;102800.41;16120533;19;129665;-40
2022/11/12 15:15:28;;;;;;;5.85;2.78;;;;;;;18.84;49.27;102803.97;16126359;19;129956;-42
2022/11/12 15:21:14;;;;;;;7.18;2.60;;;;;;;18.79;49.45;102793.50;16122738;19;129680;-43
2022/11/12 15:26:38;;;;;;;4.45;2.28;;;;;;;18.72;49.53;102803.69;16125873;19;131366;-43
2022/11/12 15:32:01;;;;;;;7.32;1.90;;;;;;;18.68;49.64;102800.47;16125570;19;130513;-42
2022/11/12 15:37:26;;;;;;;3.97;1.98;;;;;;;18.65;49.36;102795.31;16122424;19;129887;-43
2022/11/12 15:42:48;;;;;;;3.47;1.60;;;;;;;18.60;49.40;102786.72;16119914;19;130824;-42
2022/11/12 15:48:11;;;;;;;6.25;2.00;;;;;;;18.58;49.43;102781.41;16123970;19;129400;-41
2022/11/12 15:53:33;;;;;;;5.55;2.08;;;;;;;18.55;49.75;102778.19;16122366;19;129725;-42
2022/11/12 15:58:54;;;;;;;4.60;1.70;;;;;;;18.54;49.74;102770.94;16121872;19;130879;-43
2022/11/12 16:04:17;;;;;;;4.25;2.00;;;;;;;18.54;49.21;102763.44;16121155;19;130069;-42
2022/11/12 16:09:38;;;;;;;13.45;2.50;;;;;;;18.51;49.76;102751.91;16119538;19;130499;-42
2022/11/12 16:15:00;;;;;;;22.67;2.20;;;;;;;18.49;49.62;102742.94;16121345;19;129764;-43
2022/11/12 16:20:25;;;;;;;19.35;2.50;;;;;;;18.48;49.61;102749.53;16123457;19;130263;-43
2022/11/12 16:25:47;;;;;;;9.43;2.00;;;;;;;18.45;49.36;102748.91;16118882;19;129936;-43
2022/11/12 16:31:09;;;;;;;8.90;1.75;;;;;;;18.44;49.72;102760.19;16119686;19;130203;-42
2022/11/12 16:36:30;;;;;;;11.63;1.80;;;;;;;18.43;49.90;102755.69;16122965;19;129485;-42
2022/11/12 16:41:52;;;;;;;7.75;1.60;;;;;;;18.41;50.00;102753.13;16119005;19;129587;-43
2022/11/12 16:47:14;;;;;;;7.43;1.45;;;;;;;18.47;49.82;102754.25;16125600;19;129855;-42
2022/11/12 16:52:35;;;;;;;6.50;1.40;;;;;;;18.62;50.11;102754.13;16134391;19;129730;-42
2022/11/12 16:57:57;;;;;;;8.27;1.38;;;;;;;18.76;49.64;102744.84;16134909;19;129566;-42
2022/11/12 17:03:19;;;;;;;5.47;1.20;;;;;;;18.86;49.38;102749.19;16135503;19;129722;-43
2022/11/12 17:08:41;;;;;;;2.35;1.10;;;;;;;18.92;49.77;102751.16;16135474;19;129475;-42
2022/11/12 17:14:04;;;;;;;3.80;1.27;;;;;;;18.94;49.74;102742.63;16135617;19;129585;-43
2022/11/12 17:19:26;;;;;;;3.35;0.98;;;;;;;18.93;49.39;102739.00;16132578;19;129552;-42
2022/11/12 17:24:48;;;;;;;6.70;1.42;;;;;;;18.92;49.67;102742.81;16127083;19;129523;-41
2022/11/12 17:30:10;;;;;;;7.65;1.15;;;;;;;18.96;49.48;102738.56;16134821;19;129544;-43
2022/11/12 17:35:33;;;;;;;3.58;1.25;;;;;;;19.06;49.74;102736.31;16127629;19;129410;-40
2022/11/12 17:40:56;;;;;;;6.40;0.98;;;;;;;19.17;49.82;102734.00;16131211;19;129578;-43
2022/11/12 17:46:18;;;;;;;4.05;0.70;;;;;;;19.33;49.81;102724.50;16130364;19;129800;-42
2022/11/12 17:51:42;;;;;;;6.53;1.77;;;;;;;19.50;49.38;102724.97;16131005;19;129485;-41
2022/11/12 17:57:04;;;;;;;2.75;1.00;;;;;;;19.61;49.53;102726.31;16127945;19;134331;-43
2022/11/12 18:02:26;;;;;;;2.78;1.08;;;;;;;19.64;49.29;102723.97;16127950;19;130625;-43
2022/11/12 18:07:47;;;;;;;3.45;1.10;;;;;;;19.63;49.18;102733.34;16128479;19;129408;-42
2022/11/12 18:13:10;;;;;;;5.15;1.20;;;;;;;19.58;49.53;102723.94;16127931;19;130834;-43
2022/11/12 18:18:31;;;;;;;5.18;1.15;;;;;;;19.53;49.52;102721.78;16127743;19;131057;-42
2022/11/12 18:23:53;;;;;;;2.42;0.90;;;;;;;19.50;49.66;102728.63;16127880;19;129687;-43
2022/11/12 18:29:15;;;;;;;2.95;1.10;;;;;;;19.47;49.13;102728.16;16126525;19;129545;-43
2022/11/12 18:34:40;;;;;;;1.63;1.00;;;;;;;19.45;49.10;102722.84;16126301;19;130642;-43
2022/11/12 18:40:02;;;;;;;;;;;;;;;19.43;49.35;102729.66;16129765;19;131617;-43
2022/11/12 18:45:25;;;;;;;12.77;1.48;;;;;;;19.42;49.03;102719.63;16127528;19;129967;-43
2022/11/12 18:50:46;;;;;;;3.75;1.40;;;;;;;19.46;49.67;102715.34;16123222;19;131133;-42
2022/11/12 18:56:16;;;;;;;12.77;2.17;;;;;;;19.56;49.57;102720.50;16127050;19;129525;-43
2022/11/12 19:01:38;;;;;;;12.90;1.80;;;;;;;19.66;49.65;102720.97;16117638;19;130761;-43
2022/11/12 19:07:00;;;;;;;6.75;1.70;;;;;;;19.77;49.55;102725.91;16124342;19;129848;-43
2022/11/12 19:12:22;;;;;;;7.07;1.63;;;;;;;19.83;49.60;102725.06;16121824;19;130968;-43
2022/11/12 19:17:44;;;;;;;11.00;1.35;;;;;;;19.90;49.60;102727.88;16124403;19;129642;-43
2022/11/12 19:23:06;;;;;;;3.88;1.25;;;;;;;19.95;49.40;102721.66;16122063;19;129679;-43
2022/11/12 19:28:28;;;;;;;3.22;1.40;;;;;;;19.99;49.42;102718.28;16124125;19;129474;-42
2022/11/12 19:33:50;;;;;;;2.40;1.10;;;;;;;20.02;49.19;102724.50;16120881;19;131451;-42
2022/11/12 19:39:12;;;;;;;5.65;1.40;;;;;;;20.01;49.23;102718.06;16124445;19;130354;-43
2022/11/12 19:44:33;;;;;;;5.60;1.17;;;;;;;19.99;49.20;102709.06;16124537;19;129882;-43
2022/11/12 19:49:55;;;;;;;5.95;1.40;;;;;;;19.96;49.53;102701.16;16124750;19;129812;-43
2022/11/12 19:55:17;;;;;;;11.30;1.63;;;;;;;19.92;49.55;102695.19;16122093;19;130410;-43
2022/11/12 20:00:39;;;;;;;13.23;1.83;;;;;;;19.89;49.95;102684.47;16121832;19;129775;-43
2022/11/12 20:06:03;;;;;;;7.55;1.40;;;;;;;19.90;49.87;102688.09;16123242;19;129434;-43
2022/11/12 20:11:25;;;;;;;2.95;1.30;;;;;;;19.92;49.82;102686.84;16121636;19;130106;-43
2022/11/12 20:16:48;;;;;;;13.02;1.73;;;;;;;19.94;49.88;102687.47;16121076;19;131167;-43
2022/11/12 20:22:09;;;;;;;11.35;1.85;;;;;;;19.96;49.63;102682.56;16121040;19;129557;-42
2022/11/12 20:27:31;;;;;;;3.90;1.48;;;;;;;19.96;49.65;102682.56;16121578;19;129709;-43
2022/11/12 20:32:53;;;;;;;15.13;1.70;;;;;;;19.96;50.04;102685.34;16121834;19;129648;-43
2022/11/12 20:38:15;;;;;;;10.35;1.63;;;;;;;19.96;50.19;102685.34;16122526;19;130886;-43
2022/11/12 20:43:36;;;;;;;6.43;1.65;;;;;;;19.99;50.15;102676.63;16121480;19;129384;-43
2022/11/12 20:48:58;;;;;;;10.23;1.88;;;;;;;19.99;50.35;102671.06;16124997;19;129501;-44
2022/11/12 20:54:20;;;;;;;5.85;1.05;;;;;;;19.98;49.97;102674.88;16120934;19;129426;-43
2022/11/12 20:59:42;;;;;;;4.88;1.27;;;;;;;19.97;49.92;102675.09;16121775;19;129545;-43
2022/11/12 21:05:04;;;;;;;7.70;1.20;;;;;;;19.97;49.96;102667.59;16121598;19;129823;-42
2022/11/12 21:10:26;;;;;;;5.38;1.17;;;;;;;19.97;50.01;102666.75;16119866;19;129502;-43
2022/11/12 21:15:48;;;;;;;7.57;1.05;;;;;;;19.96;50.27;102660.34;16118431;19;130089;-43
2022/11/12 21:21:12;;;;;;;9.70;1.30;;;;;;;19.94;50.10;102662.47;16118013;19;130433;-43
2022/11/12 21:26:34;;;;;;;8.23;1.98;;;;;;;19.90;50.16;102660.31;16118992;19;129313;-42
2022/11/12 21:31:56;;;;;;;7.22;1.30;;;;;;;19.87;50.04;102661.63;16122873;19;129325;-43
2022/11/12 21:37:18;;;;;;;5.22;1.38;;;;;;;19.83;50.50;102652.00;16131934;19;129784;-44
2022/11/12 21:42:43;;;;;;;7.40;1.48;;;;;;;19.77;50.21;102641.75;16132563;19;129384;-45
2022/11/12 21:48:05;;;;;;;9.10;2.17;;;;;;;19.66;50.23;102641.31;16132520;19;129517;-43
2022/11/12 21:53:27;;;;;;;7.65;1.40;;;;;;;19.58;50.25;102652.59;16132195;19;129731;-43
2022/11/12 21:58:49;;;;;;;5.43;1.40;;;;;;;19.51;50.16;102662.84;16127888;19;129704;-43
2022/11/12 22:04:11;;;;;;;4.28;1.52;;;;;;;19.44;50.26;102656.44;16130402;19;129555;-43
2022/11/12 22:09:38;;;;;;;7.93;1.88;;;;;;;19.37;50.16;102643.38;16129972;19;129576;-44
2022/11/12 22:15:00;;;;;;;3.22;1.23;;;;;;;19.32;50.40;102645.91;16133171;19;130014;-43
2022/11/12 22:20:22;;;;;;;5.05;1.20;;;;;;;19.26;50.21;102641.22;16132851;19;129713;-42
2022/11/12 22:25:43;;;;;;;1.58;1.08;;;;;;;19.22;49.93;102651.00;16132114;19;129842;-43
2022/11/12 22:31:08;;;;;;;1.63;1.30;;;;;;;19.18;50.25;102646.94;16133168;19;129747;-42
2022/11/12 22:36:30;;;;;;;2.53;1.30;;;;;;;19.12;49.90;102631.97;16129835;19;130509;-43
2022/11/12 22:41:52;;;;;;;4.60;1.15;;;;;;;19.10;50.13;102624.91;16129454;19;129611;-43
2022/11/12 22:47:13;;;;;;;4.15;1.25;;;;;;;19.06;50.29;102621.69;16130166;19;129094;-43
2022/11/12 22:52:35;;;;;;;5.90;1.55;;;;;;;19.02;50.20;102618.50;16129129;19;130380;-43
2022/11/12 22:57:58;;;;;;;2.00;1.10;;;;;;;18.99;49.96;102610.56;16128919;19;129518;-43
2022/11/12 23:03:20;;;;;;;2.70;1.17;;;;;;;18.96;49.86;102616.53;16128610;19;129484;-43
2022/11/12 23:08:41;;;;;;;1.95;1.10;;;;;;;;;;16130192;19;129639;-43
2022/11/12 23:14:03;;;;;;;2.67;1.20;;;;;;;18.89;50.13;102607.34;16129828;19;129319;-43
2022/11/12 23:19:25;;;;;;;4.05;1.30;;;;;;;18.85;49.68;102597.72;16128585;19;130590;-42
2022/11/12 23:24:47;;;;;;;1.35;1.00;;;;;;;18.83;49.54;102603.47;16125025;19;129232;-43
2022/11/12 23:30:09;;;;;;;2.70;1.20;;;;;;;18.82;49.54;102589.84;16127170;19;130162;-42
2022/11/12 23:35:30;;;;;;;5.28;1.20;;;;;;;18.79;49.98;102587.47;16123141;19;129208;-43
2022/11/12 23:40:55;;;;;;;1.38;1.10;;;;;;;18.76;49.59;102572.94;16124031;19;129555;-43
2022/11/12 23:46:17;;;;;;;1.77;1.27;;;;;;;18.72;49.39;102566.09;16124816;19;129129;-43
2022/11/12 23:51:39;;;;;;;2.17;1.00;;;;;;;18.71;49.88;102569.09;16122499;19;129747;-43
2022/11/12 23:57:00;;;;;;;3.95;1.33;;;;;;;18.68;49.63;102559.28;16122726;19;129491;-42
